createdAt,value
2019-04-04T00:02:19.085Z,7.80
2019-04-04T00:04:47.289Z,7.90
2019-04-04T00:07:14.647Z,7.90
2019-04-04T00:09:42.213Z,7.90
2019-04-04T00:12:09.591Z,7.90
2019-04-04T00:14:46.403Z,8.00
2019-04-04T00:17:22.919Z,8.00
2019-04-04T00:20:04.553Z,8.00
2019-04-04T00:22:43.163Z,7.90
2019-04-04T00:25:22.808Z,7.90
2019-04-04T00:28:08.395Z,7.80
2019-04-04T00:30:36.751Z,7.80
2019-04-04T00:33:13.021Z,7.80
2019-04-04T00:35:41.122Z,7.80
2019-04-04T00:38:12.603Z,7.80
2019-04-04T00:40:41.955Z,7.80
2019-04-04T00:43:13.898Z,7.70
2019-04-04T00:45:49.860Z,7.70
2019-04-04T00:48:44.798Z,7.80
2019-04-04T00:51:18.924Z,7.80
2019-04-04T00:53:46.940Z,7.90
2019-04-04T00:56:26.826Z,7.90
2019-04-04T00:58:56.124Z,7.90
2019-04-04T01:01:26.877Z,7.90
2019-04-04T01:04:04.857Z,7.90
2019-04-04T01:06:41.272Z,7.80
2019-04-04T01:09:28.968Z,7.90
2019-04-04T01:11:57.065Z,7.70
2019-04-04T01:14:48.392Z,7.70
2019-04-04T01:17:18.050Z,7.70
2019-04-04T01:19:48.710Z,7.60
2019-04-04T01:22:18.131Z,7.60
2019-04-04T01:24:46.159Z,7.50
2019-04-04T01:27:14.330Z,7.50
2019-04-04T01:29:53.052Z,7.40
2019-04-04T01:32:22.654Z,7.30
2019-04-04T01:34:52.134Z,7.20
2019-04-04T01:37:26.907Z,7.10
2019-04-04T01:40:37.124Z,7.00
2019-04-04T01:43:05.130Z,6.90
2019-04-04T01:45:44.164Z,6.90
2019-04-04T01:48:27.572Z,6.70
2019-04-04T01:50:55.683Z,6.60
2019-04-04T01:53:23.729Z,6.40
2019-04-04T01:55:51.785Z,6.40
2019-04-04T01:58:19.767Z,6.30
2019-04-04T02:00:48.696Z,6.20
2019-04-04T02:03:22.745Z,6.20
2019-04-04T02:05:51.137Z,6.20
2019-04-04T02:08:19.803Z,6.10
2019-04-04T02:10:47.488Z,6.00
2019-04-04T02:13:16.832Z,6.00
2019-04-04T02:15:45.620Z,5.90
2019-04-04T02:18:35.766Z,5.90
2019-04-04T02:21:04.944Z,5.80
2019-04-04T02:23:36.523Z,5.80
2019-04-04T02:26:05.142Z,5.70
2019-04-04T02:28:33.254Z,5.70
2019-04-04T02:31:01.049Z,5.60
2019-04-04T02:33:31.959Z,5.60
2019-04-04T02:35:57.789Z,5.60
2019-04-04T02:38:28.110Z,5.60
2019-04-04T02:40:55.021Z,5.40
2019-04-04T02:43:27.424Z,5.60
2019-04-04T02:45:53.273Z,5.70
2019-04-04T02:48:23.368Z,5.70
2019-04-04T02:50:50.354Z,5.70
2019-04-04T02:53:20.427Z,5.80
2019-04-04T02:55:47.533Z,5.80
2019-04-04T02:58:15.503Z,5.90
2019-04-04T03:00:43.073Z,5.90
2019-04-04T03:03:10.636Z,5.90
2019-04-04T03:05:38.233Z,5.90
2019-04-04T03:08:06.073Z,5.90
2019-04-04T03:10:33.697Z,5.90
2019-04-04T03:13:03.373Z,5.90
2019-04-04T03:15:31.111Z,5.90
2019-04-04T03:17:58.790Z,5.90
2019-04-04T03:20:27.452Z,5.90
2019-04-04T03:23:00.284Z,5.90
2019-04-04T03:25:27.127Z,5.90
2019-04-04T03:27:55.534Z,6.00
2019-04-04T03:30:24.496Z,5.90
2019-04-04T03:32:54.731Z,5.90
2019-04-04T03:35:26.551Z,5.90
2019-04-04T03:37:51.159Z,5.90
2019-04-04T03:40:19.347Z,5.80
2019-04-04T03:42:46.973Z,5.80
2019-04-04T03:45:14.385Z,5.70
2019-04-04T03:47:44.493Z,5.70
2019-04-04T03:50:11.261Z,5.60
2019-04-04T03:52:43.382Z,5.50
2019-04-04T03:55:09.785Z,5.50
2019-04-04T03:57:37.422Z,5.50
2019-04-04T04:00:07.080Z,5.40
2019-04-04T04:02:35.817Z,5.60
2019-04-04T04:05:17.411Z,5.50
2019-04-04T04:07:45.823Z,5.30
2019-04-04T04:10:14.024Z,5.20
2019-04-04T04:12:43.043Z,5.20
2019-04-04T04:15:10.775Z,5.20
2019-04-04T04:17:38.197Z,5.20
2019-04-04T04:20:06.755Z,5.20
2019-04-04T04:22:34.110Z,5.20
2019-04-04T04:25:03.267Z,5.10
2019-04-04T04:27:30.889Z,5.10
2019-04-04T04:29:59.766Z,5.10
2019-04-04T04:32:28.769Z,5.20
2019-04-04T04:34:56.779Z,5.20
2019-04-04T04:37:24.275Z,5.30
2019-04-04T04:39:51.708Z,5.30
2019-04-04T04:42:21.121Z,5.40
2019-04-04T04:44:48.629Z,5.40
2019-04-04T04:47:16.215Z,5.50
2019-04-04T04:49:43.801Z,5.50
2019-04-04T04:52:14.211Z,5.60
2019-04-04T04:54:40.908Z,5.60
2019-04-04T04:57:08.551Z,5.70
2019-04-04T04:59:36.197Z,5.70
2019-04-04T05:02:03.894Z,5.80
2019-04-04T05:04:31.384Z,5.80
2019-04-04T05:06:59.527Z,5.90
2019-04-04T05:09:27.178Z,6.00
2019-04-04T05:11:54.843Z,6.10
2019-04-04T05:14:22.378Z,6.20
2019-04-04T05:16:50.075Z,6.30
2019-04-04T05:19:18.978Z,6.50
2019-04-04T05:21:49.239Z,6.60
2019-04-04T05:24:18.014Z,6.70
2019-04-04T05:26:46.291Z,6.80
2019-04-04T05:29:14.143Z,7.00
2019-04-04T05:31:41.950Z,7.20
2019-04-04T05:34:09.793Z,7.30
2019-04-04T05:36:37.426Z,7.50
2019-04-04T05:39:07.919Z,7.70
2019-04-04T05:41:37.296Z,7.90
2019-04-04T05:44:04.860Z,8.40
2019-04-04T05:46:33.366Z,8.40
2019-04-04T05:49:07.573Z,8.50
2019-04-04T05:51:30.255Z,8.70
2019-04-04T05:53:57.926Z,8.80
2019-04-04T05:56:25.354Z,9.00
2019-04-04T05:58:53.664Z,9.10
2019-04-04T06:01:21.978Z,9.30
2019-04-04T06:03:49.528Z,9.50
2019-04-04T06:06:16.868Z,9.80
2019-04-04T06:08:44.284Z,10.30
2019-04-04T06:11:12.396Z,10.50
2019-04-04T06:13:40.257Z,10.90
2019-04-04T06:16:07.717Z,11.60
2019-04-04T06:18:35.145Z,11.90
2019-04-04T06:21:02.809Z,12.30
2019-04-04T06:23:30.148Z,12.70
2019-04-04T06:25:57.473Z,13.20
2019-04-04T06:28:24.876Z,13.60
2019-04-04T06:30:54.170Z,14.00
2019-04-04T06:33:21.762Z,14.20
2019-04-04T06:35:49.187Z,14.70
2019-04-04T06:38:16.670Z,15.00
2019-04-04T06:40:44.029Z,15.30
2019-04-04T06:43:12.038Z,15.50
2019-04-04T06:45:39.593Z,15.70
2019-04-04T06:48:07.978Z,15.90
2019-04-04T06:50:38.897Z,16.10
2019-04-04T06:53:04.756Z,16.30
2019-04-04T06:55:32.201Z,16.30
2019-04-04T06:57:59.605Z,16.40
2019-04-04T07:00:27.138Z,16.40
2019-04-04T07:02:56.077Z,16.50
2019-04-04T07:05:23.588Z,16.50
2019-04-04T07:07:51.075Z,16.70
2019-04-04T07:10:21.037Z,16.90
2019-04-04T07:12:48.996Z,17.30
2019-04-04T07:15:18.065Z,17.80
2019-04-04T07:17:45.708Z,18.60
2019-04-04T07:20:16.694Z,19.20
2019-04-04T07:22:44.143Z,19.40
2019-04-04T07:25:11.697Z,19.50
2019-04-04T07:27:39.118Z,19.50
2019-04-04T07:30:08.126Z,19.30
2019-04-04T07:32:35.662Z,19.40
2019-04-04T07:35:03.736Z,19.40
2019-04-04T07:37:31.047Z,19.40
2019-04-04T07:39:58.356Z,19.50
2019-04-04T07:42:25.694Z,19.90
2019-04-04T07:44:54.746Z,20.50
2019-04-04T07:47:22.613Z,21.20
2019-04-04T07:49:53.158Z,21.60
2019-04-04T07:52:20.793Z,21.50
2019-04-04T07:54:48.130Z,21.40
2019-04-04T07:57:17.346Z,21.10
2019-04-04T07:59:44.953Z,21.00
2019-04-04T08:02:12.412Z,20.90
2019-04-04T08:04:39.974Z,20.90
2019-04-04T08:07:07.327Z,21.10
2019-04-04T08:09:34.972Z,21.30
2019-04-04T08:12:02.577Z,21.40
2019-04-04T08:14:30.017Z,21.40
2019-04-04T08:16:57.373Z,21.40
2019-04-04T08:19:24.795Z,21.30
2019-04-04T08:21:52.118Z,21.20
2019-04-04T08:24:19.445Z,21.30
2019-04-04T08:26:47.102Z,21.30
2019-04-04T08:29:14.477Z,21.80
2019-04-04T08:31:41.841Z,22.40
2019-04-04T08:34:09.218Z,23.20
2019-04-04T08:36:36.700Z,23.30
2019-04-04T08:39:07.845Z,23.60
2019-04-04T08:41:35.212Z,23.70
2019-04-04T08:44:03.073Z,23.60
2019-04-04T08:46:30.732Z,24.00
2019-04-04T08:48:58.182Z,23.90
2019-04-04T08:51:25.497Z,23.70
2019-04-04T08:53:53.021Z,23.40
2019-04-04T08:56:20.365Z,23.10
2019-04-04T08:58:47.704Z,22.80
2019-04-04T09:01:15.169Z,22.80
2019-04-04T09:03:42.723Z,23.10
2019-04-04T09:06:10.067Z,23.30
2019-04-04T09:08:37.493Z,23.60
2019-04-04T09:11:05.107Z,24.90
2019-04-04T09:13:32.750Z,26.60
2019-04-04T09:16:00.175Z,28.20
2019-04-04T09:18:27.596Z,30.20
2019-04-04T09:20:54.959Z,32.10
2019-04-04T09:23:22.380Z,33.60
2019-04-04T09:25:50.702Z,34.70
2019-04-04T09:28:18.042Z,35.80
2019-04-04T09:30:45.636Z,36.80
2019-04-04T09:33:13.055Z,37.60
2019-04-04T09:35:40.549Z,38.30
2019-04-04T09:38:07.924Z,39.10
2019-04-04T09:40:35.269Z,40.10
2019-04-04T09:43:02.677Z,41.10
2019-04-04T09:46:23.577Z,41.40
2019-04-04T09:48:50.924Z,41.70
2019-04-04T09:51:18.216Z,42.20
2019-04-04T09:53:52.871Z,41.50
2019-04-04T09:56:15.050Z,40.90
2019-04-04T09:58:42.525Z,41.00
2019-04-04T10:01:09.932Z,41.90
2019-04-04T10:03:37.609Z,42.70
2019-04-04T10:06:05.119Z,43.40
2019-04-04T10:08:32.741Z,44.00
2019-04-04T10:11:00.135Z,44.50
2019-04-04T10:13:27.575Z,44.60
2019-04-04T10:15:55.077Z,45.60
2019-04-04T10:18:22.382Z,45.50
2019-04-04T10:20:49.787Z,45.90
2019-04-04T10:23:17.117Z,46.90
2019-04-04T10:25:44.478Z,47.80
2019-04-04T10:28:11.946Z,47.90
2019-04-04T10:30:40.277Z,47.50
2019-04-04T10:33:07.727Z,44.90
2019-04-04T10:35:35.268Z,44.10
2019-04-04T10:38:02.733Z,44.10
2019-04-04T10:40:30.266Z,44.40
2019-04-04T10:42:57.731Z,45.80
2019-04-04T10:45:25.277Z,47.20
2019-04-04T10:47:52.632Z,47.10
2019-04-04T10:50:20.059Z,46.70
2019-04-04T10:52:47.611Z,47.10
2019-04-04T10:55:15.070Z,47.70
2019-04-04T10:57:42.475Z,46.70
2019-04-04T11:00:11.650Z,45.90
2019-04-04T11:02:39.046Z,43.90
2019-04-04T11:05:06.693Z,41.70
2019-04-04T11:07:34.490Z,41.20
2019-04-04T11:10:01.854Z,42.70
2019-04-04T11:12:29.704Z,43.90
2019-04-04T11:14:57.048Z,43.40
2019-04-04T11:17:24.472Z,41.00
2019-04-04T11:19:51.904Z,40.10
2019-04-04T11:22:19.278Z,40.80
2019-04-04T11:24:46.680Z,40.10
2019-04-04T11:27:14.014Z,38.30
2019-04-04T11:29:41.373Z,36.90
2019-04-04T11:32:08.827Z,35.50
2019-04-04T11:34:36.282Z,33.70
2019-04-04T11:37:03.850Z,33.80
2019-04-04T11:39:31.224Z,35.70
2019-04-04T11:41:58.914Z,37.90
2019-04-04T11:44:26.341Z,40.50
2019-04-04T11:46:53.826Z,42.30
2019-04-04T11:49:21.363Z,40.30
2019-04-04T11:51:51.797Z,37.60
2019-04-04T11:54:19.332Z,36.50
2019-04-04T11:56:46.737Z,35.00
2019-04-04T11:59:14.359Z,33.40
2019-04-04T12:01:42.473Z,32.40
2019-04-04T12:04:09.926Z,33.20
2019-04-04T12:06:37.319Z,32.70
2019-04-04T12:09:07.303Z,31.40
2019-04-04T12:11:35.054Z,29.90
2019-04-04T12:14:03.338Z,29.30
2019-04-04T12:16:32.707Z,29.60
2019-04-04T12:19:00.347Z,29.60
2019-04-04T12:21:28.280Z,30.80
2019-04-04T12:23:56.961Z,32.10
2019-04-04T12:26:24.447Z,34.30
2019-04-04T12:28:52.087Z,37.00
2019-04-04T12:31:20.063Z,38.80
2019-04-04T12:33:48.427Z,40.00
2019-04-04T12:36:24.541Z,40.50
2019-04-04T12:38:46.345Z,40.90
2019-04-04T12:41:13.847Z,40.80
2019-04-04T12:43:41.322Z,38.90
2019-04-04T12:46:09.190Z,36.50
2019-04-04T12:48:36.534Z,33.90
2019-04-04T12:51:04.525Z,32.70
2019-04-04T12:53:32.888Z,32.10
2019-04-04T12:56:01.823Z,31.00
2019-04-04T12:58:29.190Z,30.00
2019-04-04T13:00:56.650Z,29.10
2019-04-04T13:03:24.219Z,28.20
2019-04-04T13:05:52.772Z,27.20
2019-04-04T13:08:20.757Z,26.40
2019-04-04T13:10:48.216Z,25.90
2019-04-04T13:13:16.362Z,25.80
2019-04-04T13:15:43.784Z,25.60
2019-04-04T13:18:11.266Z,25.30
2019-04-04T13:20:38.609Z,24.80
2019-04-04T13:23:06.023Z,24.60
2019-04-04T13:25:33.488Z,24.70
2019-04-04T13:28:00.805Z,24.30
2019-04-04T13:30:28.158Z,24.00
2019-04-04T13:32:56.268Z,23.80
2019-04-04T13:35:23.627Z,23.70
2019-04-04T13:37:52.785Z,23.50
2019-04-04T13:40:20.395Z,23.60
2019-04-04T13:42:48.009Z,23.50
2019-04-04T13:45:16.016Z,23.60
2019-04-04T13:47:44.634Z,23.50
2019-04-04T13:50:12.940Z,23.70
2019-04-04T13:52:41.013Z,23.80
2019-04-04T13:55:08.705Z,23.60
2019-04-04T13:57:39.106Z,23.50
2019-04-04T14:00:09.167Z,23.50
2019-04-04T14:02:36.926Z,23.40
2019-04-04T14:05:10.183Z,23.10
2019-04-04T14:07:37.282Z,22.90
2019-04-04T14:10:05.843Z,22.90
2019-04-04T14:12:36.367Z,22.70
2019-04-04T14:15:05.414Z,22.80
2019-04-04T14:17:33.223Z,23.00
2019-04-04T14:20:00.735Z,23.20
2019-04-04T14:22:28.091Z,23.10
2019-04-04T14:24:55.618Z,23.20
2019-04-04T14:27:23.229Z,23.00
2019-04-04T14:29:55.171Z,22.70
2019-04-04T14:32:22.230Z,22.30
2019-04-04T14:34:49.801Z,21.80
2019-04-04T14:37:17.303Z,21.60
2019-04-04T14:39:46.691Z,21.40
2019-04-04T14:42:14.057Z,21.20
2019-04-04T14:44:41.720Z,21.10
2019-04-04T14:47:09.291Z,20.90
2019-04-04T14:49:37.261Z,20.70
2019-04-04T14:52:04.820Z,20.70
2019-04-04T14:54:32.709Z,20.70
2019-04-04T14:57:00.264Z,20.70
2019-04-04T14:59:28.308Z,20.40
2019-04-04T15:01:56.205Z,20.50
2019-04-04T15:04:26.355Z,20.20
2019-04-04T15:06:54.293Z,20.20
2019-04-04T15:09:21.851Z,20.10
2019-04-04T15:11:50.162Z,20.00
2019-04-04T15:14:18.921Z,19.90
2019-04-04T15:16:46.709Z,19.90
2019-04-04T15:19:17.442Z,19.90
2019-04-04T15:21:50.582Z,19.70
2019-04-04T15:24:18.250Z,19.70
2019-04-04T15:26:47.995Z,19.60
2019-04-04T15:29:16.561Z,19.50
2019-04-04T15:31:44.246Z,19.50
2019-04-04T15:34:11.745Z,19.50
2019-04-04T15:36:39.074Z,19.40
2019-04-04T15:39:06.834Z,19.30
2019-04-04T15:41:37.093Z,19.20
2019-04-04T15:44:03.824Z,19.20
2019-04-04T15:46:32.128Z,19.10
2019-04-04T15:48:59.597Z,19.00
2019-04-04T15:51:28.039Z,19.00
2019-04-04T15:53:55.609Z,18.90
2019-04-04T15:56:23.494Z,18.80
2019-04-04T15:58:51.020Z,18.80
2019-04-04T16:01:18.373Z,18.80
2019-04-04T16:03:45.847Z,18.70
2019-04-04T16:06:15.270Z,18.70
2019-04-04T16:08:43.500Z,18.60
2019-04-04T16:11:10.966Z,18.70
2019-04-04T16:13:38.334Z,18.70
2019-04-04T16:16:06.659Z,18.80
2019-04-04T16:18:34.287Z,18.70
2019-04-04T16:21:02.305Z,18.70
2019-04-04T16:23:30.695Z,18.60
2019-04-04T16:25:58.263Z,18.60
2019-04-04T16:28:25.697Z,18.50
2019-04-04T16:30:55.053Z,18.40
2019-04-04T16:33:22.479Z,18.30
2019-04-04T16:35:50.024Z,18.10
2019-04-04T16:38:18.034Z,18.10
2019-04-04T16:40:45.751Z,17.90
2019-04-04T16:43:13.294Z,18.00
2019-04-04T16:45:44.003Z,17.80
2019-04-04T16:48:13.846Z,17.70
2019-04-04T16:50:41.958Z,17.70
2019-04-04T16:53:09.411Z,17.50
2019-04-04T16:55:38.709Z,17.30
2019-04-04T16:58:06.191Z,16.90
2019-04-04T17:00:35.090Z,17.00
2019-04-04T17:03:02.814Z,16.90
2019-04-04T17:05:30.514Z,16.80
2019-04-04T17:07:58.009Z,16.60
2019-04-04T17:10:28.099Z,16.60
2019-04-04T17:12:56.408Z,16.40
2019-04-04T17:15:24.101Z,16.30
2019-04-04T17:17:51.605Z,16.10
2019-04-04T17:20:20.854Z,16.00
2019-04-04T17:22:53.279Z,15.90
2019-04-04T17:25:22.188Z,15.80
2019-04-04T17:27:51.851Z,15.70
2019-04-04T17:30:20.862Z,15.60
2019-04-04T17:32:49.647Z,15.60
2019-04-04T17:35:17.938Z,15.50
2019-04-04T17:37:46.111Z,15.30
2019-04-04T17:40:14.115Z,15.30
2019-04-04T17:42:44.032Z,15.20
2019-04-04T17:45:13.129Z,15.10
2019-04-04T17:47:40.809Z,15.00
2019-04-04T17:50:10.151Z,14.90
2019-04-04T17:52:37.871Z,14.90
2019-04-04T17:55:05.997Z,14.80
2019-04-04T17:57:33.797Z,14.70
2019-04-04T18:00:01.485Z,14.90
2019-04-04T18:02:29.081Z,14.70
2019-04-04T18:04:56.511Z,14.60
2019-04-04T18:07:23.979Z,14.60
2019-04-04T18:09:51.680Z,14.50
2019-04-04T18:12:19.298Z,14.40
2019-04-04T18:14:46.676Z,14.20
2019-04-04T18:17:15.485Z,14.10
2019-04-04T18:19:43.045Z,13.90
2019-04-04T18:22:10.579Z,13.70
2019-04-04T18:24:38.135Z,13.50
2019-04-04T18:27:06.047Z,13.40
2019-04-04T18:29:33.972Z,13.30
2019-04-04T18:32:02.424Z,13.10
2019-04-04T18:34:31.727Z,13.00
2019-04-04T18:37:00.146Z,12.90
2019-04-04T18:39:27.505Z,12.70
2019-04-04T18:41:56.052Z,12.60
2019-04-04T18:44:24.936Z,12.50
2019-04-04T18:46:53.278Z,12.40
2019-04-04T18:49:23.484Z,12.30
2019-04-04T18:51:51.084Z,12.20
2019-04-04T18:54:18.678Z,12.20
2019-04-04T18:56:49.808Z,12.10
2019-04-04T18:59:19.648Z,12.00
2019-04-04T19:01:52.295Z,11.90
2019-04-04T19:04:20.812Z,11.80
2019-04-04T19:06:49.190Z,11.80
2019-04-04T19:09:16.676Z,11.80
2019-04-04T19:11:45.756Z,11.70
2019-04-04T19:14:13.341Z,11.70
2019-04-04T19:16:41.068Z,11.70
2019-04-04T19:19:08.858Z,11.70
2019-04-04T19:21:36.638Z,11.60
2019-04-04T19:24:05.151Z,11.60
2019-04-04T19:26:34.970Z,11.60
2019-04-04T19:29:03.790Z,11.60
2019-04-04T19:31:32.898Z,11.60
2019-04-04T19:34:00.273Z,11.60
2019-04-04T19:36:30.489Z,11.50
2019-04-04T19:38:59.483Z,11.50
2019-04-04T19:41:28.143Z,11.40
2019-04-04T19:43:55.664Z,11.40
2019-04-04T19:46:36.441Z,11.40
2019-04-04T19:48:55.315Z,11.30
2019-04-04T19:51:22.708Z,11.30
2019-04-04T19:53:50.640Z,11.20
2019-04-04T19:56:17.946Z,11.10
2019-04-04T19:58:46.272Z,11.10
2019-04-04T20:01:15.010Z,11.00
2019-04-04T20:03:42.552Z,11.00
2019-04-04T20:06:11.120Z,11.00
2019-04-04T20:08:38.750Z,11.00
2019-04-04T20:11:07.023Z,11.10
2019-04-04T20:13:47.914Z,11.10
2019-04-04T20:16:16.957Z,11.10
2019-04-04T20:18:45.437Z,11.10
2019-04-04T20:21:13.773Z,11.10
2019-04-04T20:23:45.400Z,11.10
2019-04-04T20:26:13.150Z,11.10
2019-04-04T20:28:40.612Z,11.20
2019-04-04T20:31:08.232Z,11.20
2019-04-04T20:33:35.891Z,11.20
2019-04-04T20:36:05.016Z,11.20
2019-04-04T20:38:33.726Z,11.20
2019-04-04T20:41:01.510Z,11.30
2019-04-04T20:43:29.194Z,11.30
2019-04-04T20:45:58.053Z,11.30
2019-04-04T20:48:27.239Z,11.30
2019-04-04T20:50:54.897Z,11.30
2019-04-04T20:53:22.453Z,11.30
2019-04-04T20:55:50.034Z,11.30
2019-04-04T20:58:17.632Z,11.20
2019-04-04T21:00:46.352Z,11.20
2019-04-04T21:03:13.981Z,11.30
2019-04-04T21:05:41.461Z,11.20
2019-04-04T21:08:11.973Z,11.20
2019-04-04T21:10:42.363Z,11.10
2019-04-04T21:13:10.054Z,11.10
2019-04-04T21:15:40.159Z,11.00
2019-04-04T21:18:07.783Z,10.90
2019-04-04T21:20:35.239Z,10.90
2019-04-04T21:23:02.811Z,10.80
2019-04-04T21:25:30.301Z,10.80
2019-04-04T21:27:57.961Z,10.80
2019-04-04T21:30:25.665Z,10.80
2019-04-04T21:32:53.080Z,10.90
2019-04-04T21:35:21.673Z,10.80
2019-04-04T21:37:49.298Z,10.80
2019-04-04T21:40:16.746Z,10.80
2019-04-04T21:42:45.478Z,10.80
2019-04-04T21:45:15.297Z,10.80
2019-04-04T21:47:42.461Z,10.80
2019-04-04T21:50:09.954Z,10.70
2019-04-04T21:52:37.374Z,10.70
2019-04-04T21:55:05.832Z,10.70
2019-04-04T21:57:33.178Z,10.70
2019-04-04T22:00:00.627Z,10.70
2019-04-04T22:02:28.082Z,10.70
2019-04-04T22:04:57.362Z,10.70
2019-04-04T22:07:25.664Z,10.70
2019-04-04T22:09:53.235Z,10.70
2019-04-04T22:12:20.825Z,10.80
2019-04-04T22:14:48.313Z,10.80
2019-04-04T22:17:16.706Z,10.80
2019-04-04T22:19:44.692Z,10.80
2019-04-04T22:22:13.548Z,10.80
2019-04-04T22:24:41.896Z,10.80
2019-04-04T22:27:10.039Z,10.70
2019-04-04T22:29:37.377Z,10.80
2019-04-04T22:32:04.757Z,10.80
2019-04-04T22:34:33.145Z,10.80
2019-04-04T22:37:00.539Z,10.80
2019-04-04T22:39:28.274Z,10.80
2019-04-04T22:41:55.631Z,10.80
2019-04-04T22:44:34.017Z,10.90
2019-04-04T22:46:53.898Z,10.80
2019-04-04T22:49:21.877Z,10.90
2019-04-04T22:51:49.380Z,10.90
2019-04-04T22:54:17.043Z,10.70
2019-04-04T22:56:44.388Z,10.90
2019-04-04T22:59:11.792Z,10.90
2019-04-04T23:01:39.331Z,11.00
2019-04-04T23:04:06.981Z,11.00
2019-04-04T23:06:36.333Z,11.00
2019-04-04T23:09:08.059Z,11.10
2019-04-04T23:11:35.549Z,11.10
2019-04-04T23:14:04.090Z,11.10
2019-04-04T23:16:31.695Z,11.20
2019-04-04T23:18:59.229Z,11.20
2019-04-04T23:21:26.733Z,11.20
2019-04-04T23:23:54.539Z,11.20
2019-04-04T23:26:22.060Z,11.20
2019-04-04T23:28:49.434Z,11.20
2019-04-04T23:31:16.913Z,11.30
2019-04-04T23:33:44.580Z,11.30
2019-04-04T23:36:12.133Z,11.20
2019-04-04T23:38:41.499Z,11.30
2019-04-04T23:41:09.126Z,11.30
2019-04-04T23:43:36.513Z,11.30
2019-04-04T23:46:04.060Z,11.20
2019-04-04T23:48:31.672Z,11.20
2019-04-04T23:50:59.099Z,11.10
2019-04-04T23:53:26.757Z,11.10
2019-04-04T23:55:54.377Z,11.10
2019-04-04T23:58:21.834Z,11.10
